»·PEaware :: N8295H KCRQ-KSNA

N8295H :: KCRQ-KSNA

FLIGHT INFORMATION

Flight Status: Arrived
Operator: Privately registered:
United States
More flights under this callsign
Pilot: Andrew R. (27652)
Aircraft: PIPER PA-28 CHEROKEE ARCHER
(P28A)
More flights by this aircraft type
Origin: KCRQ McClellan-Palomar
United States
Destination: KSNA John Wayne-Orange Co
United States
More flights between these airports :: More routes between these airports
Route: OCN V23 SLI
File this flight plan on PilotEdge
Remarks:
Altitude:
(Current/Filed)
6,000ft
Speed:
(Current/Filed)
105kts
Departed: 13-Jan-21 08:51 PM
Arrived: 13-Jan-21 09:25 PM
Distance/Time
Traveled:
44nm/0:34
Distance/Time
To Go:
Arrived

Flight Plot

Page will automatically refresh every two minutes.


Map Options




Map Legend


Flown Route
Filed Route
Departure Airport
Arrival Airport
Navaid (VOR, NDB)
Fix

Horizontal Profiles

Position Reports

Time Latitude Longitude Heading Altitude Ground
Speed
13-Jan-21 20:31 33.127582 -117.275801 170 334ft 0kts
13-Jan-21 20:32 33.127582 -117.275801 170 334ft 0kts
13-Jan-21 20:33 33.127582 -117.275801 170 334ft 0kts
13-Jan-21 20:34 33.127582 -117.275801 170 334ft 0kts
13-Jan-21 20:35 33.127582 -117.275801 170 334ft 0kts
13-Jan-21 20:36 33.127582 -117.275801 170 334ft 0kts
13-Jan-21 20:37 33.127582 -117.275801 170 334ft 0kts
13-Jan-21 20:38 33.127582 -117.275801 170 334ft 0kts
13-Jan-21 20:39 33.127582 -117.275801 170 334ft 0kts
13-Jan-21 20:40 33.127582 -117.275801 170 334ft 0kts
13-Jan-21 20:41 33.127582 -117.275801 170 334ft 0kts
13-Jan-21 20:42 33.127582 -117.275801 170 334ft 0kts
13-Jan-21 20:43 33.127569 -117.275778 104 334ft 1kts
13-Jan-21 20:44 33.128450 -117.273757 78 334ft 12kts
13-Jan-21 20:45 33.128725 -117.272227 350 334ft 0kts
13-Jan-21 20:46 33.128725 -117.272227 350 334ft 0kts
13-Jan-21 20:47 33.128725 -117.272227 350 334ft 0kts
13-Jan-21 20:48 33.128726 -117.272227 350 334ft 0kts
13-Jan-21 20:49 33.128726 -117.272227 350 334ft 0kts
13-Jan-21 20:50 33.128391 -117.279246 261 345ft 79kts
13-Jan-21 20:51 33.124369 -117.307715 257 916ft 87kts
13-Jan-21 20:52 33.121359 -117.337015 263 1528ft 89kts
13-Jan-21 20:53 33.118814 -117.366982 279 2142ft 92kts
13-Jan-21 20:54 33.139131 -117.378152 350 2755ft 83kts
13-Jan-21 20:55 33.161217 -117.387222 339 3347ft 85kts
13-Jan-21 20:56 33.183571 -117.394867 349 3918ft 83kts
13-Jan-21 20:57 33.205327 -117.405661 344 4451ft 84kts
13-Jan-21 20:58 33.227531 -117.414230 346 4960ft 84kts
13-Jan-21 20:59 33.247749 -117.427404 315 5440ft 87kts
13-Jan-21 21:00 33.264537 -117.448487 321 5879ft 87kts
13-Jan-21 21:01 33.281355 -117.471466 319 6075ft 92kts
13-Jan-21 21:02 33.302551 -117.489852 328 6107ft 94kts
13-Jan-21 21:03 33.322216 -117.513347 323 6032ft 102kts
13-Jan-21 21:04 33.342985 -117.535978 318 6009ft 101kts
13-Jan-21 21:05 33.360148 -117.563352 317 5979ft 101kts
13-Jan-21 21:07 33.379586 -117.588756 322 5955ft 102kts
13-Jan-21 21:08 33.402548 -117.607677 333 5978ft 99kts
13-Jan-21 21:09 33.426055 -117.625187 335 5959ft 99kts
13-Jan-21 21:10 33.449897 -117.641929 335 5298ft 99kts
13-Jan-21 21:11 33.473636 -117.658506 335 4670ft 98kts
13-Jan-21 21:12 33.497486 -117.674500 334 4061ft 98kts
13-Jan-21 21:13 33.521220 -117.690374 333 3477ft 97kts
13-Jan-21 21:14 33.544780 -117.706214 329 3031ft 97kts
13-Jan-21 21:15 33.568084 -117.722161 333 3026ft 96kts
13-Jan-21 21:16 33.592180 -117.736443 334 3015ft 96kts
13-Jan-21 21:17 33.615849 -117.751690 333 3004ft 96kts
13-Jan-21 21:18 33.639760 -117.766497 335 2992ft 96kts
13-Jan-21 21:19 33.663268 -117.782006 324 2812ft 97kts
13-Jan-21 21:20 33.686602 -117.798965 332 2222ft 99kts
13-Jan-21 21:21 33.709771 -117.815895 320 1640ft 98kts
13-Jan-21 21:21 33.721408 -117.838583 274 1208ft 97kts
13-Jan-21 21:23 33.699794 -117.853551 206 522ft 67kts
13-Jan-21 21:24 33.683243 -117.864049 208 149ft 66kts
13-Jan-21 21:24 33.677369 -117.866658 118 59ft 3kts
13-Jan-21 21:26 33.675359 -117.865677 208 59ft 8kts
13-Jan-21 21:26 33.673380 -117.866954 212 59ft 9kts
13-Jan-21 21:27 33.671516 -117.867815 146 59ft 4kts
13-Jan-21 21:28 33.671335 -117.867796 214 59ft 0kts
13-Jan-21 21:29 33.671335 -117.867796 214 59ft 0kts
13-Jan-21 21:30 33.671335 -117.867796 214 59ft 0kts
13-Jan-21 21:31 33.671335 -117.867796 214 59ft 0kts
13-Jan-21 21:32 33.671335 -117.867796 214 59ft 0kts
13-Jan-21 21:33 33.671335 -117.867796 214 59ft 0kts
13-Jan-21 21:34 33.671335 -117.867796 214 59ft 0kts
13-Jan-21 21:35 33.671335 -117.867796 214 59ft 0kts
13-Jan-21 21:36 33.671335 -117.867796 214 59ft 0kts
13-Jan-21 21:37 33.671335 -117.867796 214 59ft 0kts
13-Jan-21 21:38 33.671335 -117.867796 214 59ft 0kts

Navigation Log

Ident Type
Flight plan parsing failed, navigation log unavailable